Time;durP1;ratioP1;P1;durP2;ratioP2;P2;SDS_P1;SDS_P2;PMS_P1;PMS_P2;Temp;Humidity;BMP_temperature;BMP_pressure;BME280_temperature;BME280_humidity;BME280_pressure;Samples;Min_cycle;Max_cycle;Signal;HPM_P1;HPM_P2
2022/10/15 00:02:14;;;;;;;2.83;1.65;;;11.60;92.30;;;;;;6273906;22;20007;-77
2022/10/15 00:04:40;;;;;;;2.92;1.45;;;11.60;92.30;;;;;;6251893;22;20003;-79
2022/10/15 00:07:06;;;;;;;2.78;1.48;;;11.60;92.30;;;;;;6305462;22;20007;-79
2022/10/15 00:09:31;;;;;;;2.17;1.35;;;11.60;92.30;;;;;;6277884;22;20488;-80
2022/10/15 00:11:57;;;;;;;2.35;1.60;;;11.50;92.30;;;;;;6275539;22;20008;-79
2022/10/15 00:14:23;;;;;;;2.60;1.42;;;11.40;92.30;;;;;;6278014;22;20004;-79
2022/10/15 00:16:49;;;;;;;2.10;1.20;;;11.40;92.30;;;;;;6304429;22;20466;-80
2022/10/15 00:19:14;;;;;;;2.28;1.52;;;11.40;92.40;;;;;;6276454;22;20053;-79
2022/10/15 00:21:40;;;;;;;1.98;1.48;;;11.40;92.40;;;;;;6276274;22;19999;-79
2022/10/15 00:24:09;;;;;;;2.53;1.45;;;11.40;92.40;;;;;;6309084;22;19995;-80
2022/10/15 00:26:35;;;;;;;2.88;1.65;;;11.30;92.40;;;;;;6249114;22;20090;-80
2022/10/15 00:29:02;;;;;;;3.13;1.60;;;11.30;92.30;;;;;;6307390;22;20030;-80
2022/10/15 00:31:30;;;;;;;2.35;1.40;;;11.30;92.40;;;;;;6277644;22;20137;-80
2022/10/15 00:33:58;;;;;;;2.08;1.33;;;11.30;92.30;;;;;;6276405;22;20018;-80
2022/10/15 00:36:27;;;;;;;2.47;1.48;;;11.30;92.30;;;;;;6295426;22;20069;-79
2022/10/15 00:38:53;;;;;;;2.92;1.40;;;11.20;92.30;;;;;;6302892;22;20007;-79
2022/10/15 00:41:22;;;;;;;2.22;1.25;;;11.20;92.40;;;;;;6305022;22;20041;-80
2022/10/15 00:43:53;;;;;;;2.08;1.60;;;11.20;92.40;;;;;;6306524;22;20053;-80
2022/10/15 00:46:40;;;;;;;2.28;1.30;;;11.20;92.40;;;;;;6304584;22;20049;-79
2022/10/15 00:49:17;;;;;;;1.35;1.20;;;11.20;92.40;;;;;;6302962;22;20003;-79
2022/10/15 00:51:51;;;;;;;1.88;1.23;;;11.10;92.30;;;;;;6276786;22;20022;-80
2022/10/15 00:54:18;;;;;;;2.00;1.05;;;11.10;92.30;;;;;;6274785;22;20003;-80
2022/10/15 00:56:44;;;;;;;1.70;1.10;;;11.10;92.30;;;;;;6277258;22;20386;-79
2022/10/15 00:59:12;;;;;;;1.90;1.20;;;11.10;92.40;;;;;;6304679;22;19999;-80
2022/10/15 01:01:38;;;;;;;1.67;1.17;;;11.00;92.30;;;;;;6304752;22;20086;-80
2022/10/15 01:04:06;;;;;;;2.00;1.20;;;11.00;92.30;;;;;;6274296;22;20328;-80
2022/10/15 01:06:33;;;;;;;3.15;1.40;;;11.10;92.30;;;;;;6304871;22;20007;-80
2022/10/15 01:09:00;;;;;;;2.42;1.40;;;11.20;92.30;;;;;;6304697;22;19999;-80
2022/10/15 01:11:45;;;;;;;1.38;1.02;;;11.10;92.30;;;;;;6276640;22;20090;-79
2022/10/15 01:14:36;;;;;;;2.20;1.30;;;11.00;92.30;;;;;;6275602;22;20031;-79
2022/10/15 01:17:15;;;;;;;1.65;1.10;;;11.00;92.20;;;;;;6274070;22;20091;-79
2022/10/15 01:20:06;;;;;;;1.00;0.90;;;11.00;92.20;;;;;;6276838;22;20002;-79
2022/10/15 01:23:07;;;;;;;1.40;0.90;;;11.10;92.30;;;;;;6279091;22;20007;-80
2022/10/15 01:25:59;;;;;;;1.10;0.80;;;11.00;92.20;;;;;;6303960;22;20012;-80
2022/10/15 01:28:51;;;;;;;1.60;1.10;;;11.10;92.20;;;;;;6276849;22;20050;-80
2022/10/15 01:31:37;;;;;;;1.90;1.00;;;11.10;92.20;;;;;;6302350;22;20065;-80
2022/10/15 01:34:16;;;;;;;1.40;0.70;;;11.10;92.20;;;;;;6278038;22;20012;-80
2022/10/15 01:37:18;;;;;;;2.22;1.20;;;11.00;92.10;;;;;;6305440;22;20000;-80
2022/10/15 01:39:50;;;;;;;2.17;1.10;;;11.10;92.20;;;;;;6305152;22;20320;-80
2022/10/15 01:42:26;;;;;;;2.25;1.15;;;11.10;92.10;;;;;;6277794;22;20038;-80
2022/10/15 01:44:57;;;;;;;1.65;1.00;;;11.20;92.10;;;;;;6305380;22;20003;-79
2022/10/15 01:47:30;;;;;;;2.00;1.20;;;11.10;92.10;;;;;;6303202;22;20007;-80
2022/10/15 01:49:59;;;;;;;2.35;1.00;;;11.10;92.10;;;;;;6276023;22;20328;-80
2022/10/15 01:52:31;;;;;;;1.42;1.00;;;11.20;92.10;;;;;;6305190;22;20007;-80
2022/10/15 01:54:58;;;;;;;;;;;11.20;92.10;;;;;;6252643;22;20332;-79
2022/10/15 01:57:26;;;;;;;1.80;0.95;;;11.20;92.10;;;;;;6305724;22;19905;-80
2022/10/15 01:59:53;;;;;;;1.75;0.98;;;11.20;92.30;;;;;;6278416;22;20415;-80
2022/10/15 02:02:19;;;;;;;1.63;1.10;;;11.20;92.00;;;;;;6277178;22;20006;-80
2022/10/15 02:04:45;;;;;;;1.58;1.10;;;11.20;92.00;;;;;;6277966;22;20453;-80
2022/10/15 02:07:20;;;;;;;1.55;0.98;;;11.20;92.10;;;;;;6305371;22;20008;-80
2022/10/15 02:10:07;;;;;;;1.70;1.10;;;11.20;92.00;;;;;;6304374;22;20038;-80
2022/10/15 02:12:52;;;;;;;1.00;0.90;;;11.20;92.10;;;;;;6273330;22;20004;-80
2022/10/15 02:15:33;;;;;;;2.30;1.10;;;11.20;92.00;;;;;;6276820;22;20012;-79
2022/10/15 02:18:17;;;;;;;2.25;1.15;;;11.30;92.10;;;;;;6279145;22;20012;-80
2022/10/15 02:20:54;;;;;;;2.53;1.40;;;11.20;92.00;;;;;;6306268;22;20054;-80
2022/10/15 02:23:30;;;;;;;1.73;1.10;;;11.30;92.00;;;;;;6307500;22;20026;-80
2022/10/15 02:25:57;;;;;;;1.15;0.90;;;11.30;92.00;;;;;;6276499;22;20053;-79
2022/10/15 02:28:26;;;;;;;2.15;1.23;;;11.20;92.00;;;;;;6305550;22;20139;-80
2022/10/15 02:30:54;;;;;;;2.92;1.33;;;11.30;92.00;;;;;;6250361;22;19996;-80
2022/10/15 02:33:22;;;;;;;1.88;1.10;;;11.20;92.00;;;;;;6278010;22;20019;-79
2022/10/15 02:35:50;;;;;;;1.35;1.00;;;11.30;92.00;;;;;;6278020;22;20420;-80
2022/10/15 02:38:19;;;;;;;2.13;1.08;;;11.30;92.00;;;;;;6278598;22;20006;-80
2022/10/15 02:40:47;;;;;;;2.67;1.35;;;11.20;92.00;;;;;;6250307;22;20379;-80
2022/10/15 02:43:14;;;;;;;1.88;1.20;;;11.30;92.00;;;;;;6303916;22;19999;-79
2022/10/15 02:45:41;;;;;;;2.83;1.52;;;11.30;92.10;;;;;;6278061;22;20078;-80
2022/10/15 02:48:07;;;;;;;2.05;1.23;;;11.30;92.10;;;;;;6277525;22;20003;-79
2022/10/15 02:50:33;;;;;;;2.92;1.40;;;11.30;92.00;;;;;;6305432;22;20131;-80
2022/10/15 02:52:59;;;;;;;2.53;1.33;;;11.30;92.00;;;;;;6252380;22;20042;-79
2022/10/15 02:55:25;;;;;;;2.22;1.33;;;11.40;92.10;;;;;;6271972;22;20426;-79
2022/10/15 02:57:51;;;;;;;2.83;1.45;;;11.30;92.10;;;;;;6278101;22;20000;-80
2022/10/15 03:00:17;;;;;;;3.10;1.50;;;11.30;92.10;;;;;;6277726;22;20074;-77
2022/10/15 03:02:43;;;;;;;2.25;1.30;;;11.30;92.00;;;;;;6308483;22;20009;-80
2022/10/15 03:05:09;;;;;;;3.90;1.70;;;11.30;92.10;;;;;;6278143;22;20071;-80
2022/10/15 03:07:36;;;;;;;2.92;1.60;;;11.30;92.00;;;;;;6277735;22;20046;-80
2022/10/15 03:10:02;;;;;;;2.25;1.48;;;11.30;92.10;;;;;;6277712;22;20011;-80
2022/10/15 03:12:28;;;;;;;2.88;1.58;;;11.30;92.10;;;;;;6252158;22;20007;-80
2022/10/15 03:14:54;;;;;;;2.72;1.60;;;11.20;92.10;;;;;;6276383;22;20010;-80
2022/10/15 03:17:19;;;;;;;2.47;1.48;;;11.40;92.10;;;;;;6245723;22;20000;-80
2022/10/15 03:19:45;;;;;;;3.00;1.80;;;11.30;92.10;;;;;;6266560;22;20006;-80
2022/10/15 03:22:11;;;;;;;3.03;1.48;;;11.30;92.10;;;;;;6290348;22;20003;-80
2022/10/15 03:24:37;;;;;;;3.80;1.98;;;11.30;92.10;;;;;;6275929;22;20462;-80
2022/10/15 03:27:02;;;;;;;3.75;1.70;;;11.10;92.10;;;;;;6275364;22;20074;-79
2022/10/15 03:29:29;;;;;;;3.03;1.50;;;11.30;92.10;;;;;;6272492;22;20000;-80
2022/10/15 03:31:55;;;;;;;2.92;1.60;;;11.20;92.10;;;;;;6307199;22;20011;-77
2022/10/15 03:34:21;;;;;;;2.25;1.30;;;11.20;92.10;;;;;;6305779;22;19999;-80
2022/10/15 03:36:46;;;;;;;3.72;1.90;;;11.20;92.10;;;;;;6305246;22;19995;-80
2022/10/15 03:39:13;;;;;;;2.50;1.40;;;11.20;92.10;;;;;;6303411;22;20007;-80
2022/10/15 03:41:39;;;;;;;2.55;1.50;;;11.20;92.10;;;;;;6304968;22;20038;-80
2022/10/15 03:44:06;;;;;;;2.58;1.27;;;11.30;92.20;;;;;;6305570;22;20011;-77
2022/10/15 03:46:32;;;;;;;2.17;1.40;;;11.30;92.20;;;;;;6249417;22;20288;-80
2022/10/15 03:48:59;;;;;;;2.63;1.50;;;11.30;92.10;;;;;;6277449;22;20153;-79
2022/10/15 03:51:24;;;;;;;2.88;1.30;;;11.30;92.10;;;;;;6304841;22;20007;-80
2022/10/15 03:53:50;;;;;;;2.17;1.33;;;11.20;92.10;;;;;;6292046;22;19995;-80
2022/10/15 03:56:16;;;;;;;2.45;1.52;;;11.30;92.10;;;;;;6275921;22;20003;-79
2022/10/15 03:58:42;;;;;;;2.05;1.35;;;11.30;92.10;;;;;;6274757;22;20008;-80
2022/10/15 04:01:09;;;;;;;2.40;1.40;;;11.30;92.10;;;;;;6277491;22;20003;-79
2022/10/15 04:03:35;;;;;;;2.17;1.30;;;11.30;92.10;;;;;;6305583;22;20014;-80
2022/10/15 04:06:01;;;;;;;1.83;1.20;;;11.30;92.10;;;;;;6309024;22;20007;-79
2022/10/15 04:08:26;;;;;;;3.17;1.33;;;11.30;92.10;;;;;;6276566;22;20003;-79
2022/10/15 04:10:53;;;;;;;2.38;1.35;;;11.30;92.10;;;;;;6246232;22;19999;-80
2022/10/15 04:13:18;;;;;;;1.98;1.30;;;11.30;92.10;;;;;;6277984;22;20431;-80
2022/10/15 04:15:44;;;;;;;2.20;1.30;;;11.30;92.10;;;;;;6305328;22;20026;-80
2022/10/15 04:18:10;;;;;;;2.47;1.23;;;11.30;92.10;;;;;;6305623;22;20021;-80
2022/10/15 04:20:37;;;;;;;1.67;1.17;;;11.30;92.10;;;;;;6280696;22;20023;-80
2022/10/15 04:23:02;;;;;;;2.13;1.38;;;11.30;92.10;;;;;;6306757;22;20004;-80
2022/10/15 04:25:28;;;;;;;2.25;1.38;;;11.30;92.10;;;;;;6306121;22;20006;-80
2022/10/15 04:27:54;;;;;;;3.00;1.50;;;11.30;92.10;;;;;;6305640;22;20327;-80
2022/10/15 04:30:20;;;;;;;2.50;1.42;;;11.30;92.10;;;;;;6278125;22;20010;-79
2022/10/15 04:32:46;;;;;;;3.30;1.40;;;11.40;92.10;;;;;;6305324;22;20021;-80
2022/10/15 04:35:11;;;;;;;1.88;1.33;;;11.30;92.10;;;;;;6250412;22;20428;-80
2022/10/15 04:37:37;;;;;;;2.65;1.40;;;11.30;92.10;;;;;;6279707;22;20003;-80
2022/10/15 04:40:06;;;;;;;1.42;1.10;;;11.30;92.10;;;;;;6248196;22;20432;-80
2022/10/15 04:42:32;;;;;;;2.33;1.33;;;11.40;92.10;;;;;;6304932;22;20045;-80
2022/10/15 04:44:57;;;;;;;1.85;1.20;;;11.30;92.10;;;;;;6305268;22;20007;-79
2022/10/15 04:47:23;;;;;;;2.28;1.50;;;11.40;92.10;;;;;;6276643;22;20094;-79
2022/10/15 04:49:49;;;;;;;2.35;1.40;;;11.30;92.10;;;;;;6274602;22;20019;-80
2022/10/15 04:52:15;;;;;;;1.95;1.27;;;11.40;92.10;;;;;;6250818;22;20027;-80
2022/10/15 04:54:40;;;;;;;2.53;1.38;;;11.40;92.10;;;;;;6288528;22;20084;-80
2022/10/15 04:57:06;;;;;;;2.97;1.65;;;11.50;92.10;;;;;;6288716;22;20011;-80
2022/10/15 04:59:32;;;;;;;1.92;1.40;;;11.70;92.10;;;;;;6278786;22;20041;-79
2022/10/15 05:01:58;;;;;;;2.88;1.52;;;11.80;92.00;;;;;;6305622;22;19999;-80
2022/10/15 05:04:23;;;;;;;2.15;1.48;;;11.90;91.80;;;;;;6278291;22;20003;-79
2022/10/15 05:06:49;;;;;;;2.38;1.50;;;11.80;91.80;;;;;;6277298;22;20003;-80
2022/10/15 05:09:15;;;;;;;3.22;1.70;;;11.80;91.80;;;;;;6305277;22;20000;-80
2022/10/15 05:11:40;;;;;;;2.30;1.48;;;11.80;91.80;;;;;;6305156;22;20424;-80
2022/10/15 05:14:07;;;;;;;3.33;1.83;;;11.90;91.90;;;;;;6247016;22;20015;-80
2022/10/15 05:16:32;;;;;;;2.13;1.48;;;11.90;91.90;;;;;;6277277;22;20039;-79
2022/10/15 05:19:02;;;;;;;3.72;1.80;;;12.00;91.90;;;;;;6274734;22;20000;-80
2022/10/15 05:21:28;;;;;;;2.97;1.80;;;12.00;91.80;;;;;;6299660;22;20030;-79
2022/10/15 05:23:54;;;;;;;2.03;1.42;;;12.00;91.80;;;;;;6271022;22;20429;-79
2022/10/15 05:26:23;;;;;;;2.47;1.60;;;12.00;91.80;;;;;;6305121;22;20327;-79
2022/10/15 05:28:50;;;;;;;2.15;1.50;;;12.00;91.80;;;;;;6305074;22;20485;-79
2022/10/15 05:31:19;;;;;;;2.58;1.75;;;12.10;91.80;;;;;;6245183;22;20490;-81
2022/10/15 05:33:45;;;;;;;2.53;1.52;;;12.10;91.80;;;;;;6309170;22;20035;-78
2022/10/15 05:36:16;;;;;;;2.47;1.70;;;12.10;91.80;;;;;;6272144;22;20011;-79
2022/10/15 05:38:42;;;;;;;2.33;1.63;;;12.10;91.80;;;;;;6270955;22;20443;-80
2022/10/15 05:41:09;;;;;;;2.47;1.58;;;12.20;91.90;;;;;;6304796;22;20022;-79
2022/10/15 05:43:35;;;;;;;2.67;1.60;;;12.20;91.90;;;;;;6275249;22;20312;-80
2022/10/15 05:46:01;;;;;;;2.72;1.50;;;12.20;91.90;;;;;;6278014;22;20018;-79
2022/10/15 05:48:26;;;;;;;2.20;1.40;;;12.20;91.90;;;;;;6302007;22;20007;-80
2022/10/15 05:50:53;;;;;;;2.55;1.60;;;12.20;91.90;;;;;;6277273;22;19999;-79
2022/10/15 05:53:19;;;;;;;3.13;1.88;;;12.20;91.90;;;;;;6246242;22;20033;-80
2022/10/15 05:55:45;;;;;;;3.13;2.03;;;12.40;92.00;;;;;;6248598;22;20364;-80
2022/10/15 05:58:11;;;;;;;4.55;2.58;;;12.30;92.00;;;;;;6275930;22;20454;-80
2022/10/15 06:00:38;;;;;;;5.10;2.92;;;12.40;91.90;;;;;;6275766;22;19999;-80
2022/10/15 06:03:04;;;;;;;4.47;2.47;;;12.50;91.90;;;;;;6305180;22;20033;-80
2022/10/15 06:05:31;;;;;;;4.15;2.28;;;12.60;91.80;;;;;;6304426;22;20011;-80
2022/10/15 06:07:56;;;;;;;4.03;2.35;;;12.60;91.80;;;;;;6276429;22;20545;-80
2022/10/15 06:10:22;;;;;;;4.30;2.50;;;12.60;91.80;;;;;;6304983;22;20007;-80
2022/10/15 06:12:49;;;;;;;4.65;2.50;;;12.70;91.80;;;;;;6277362;22;20007;-80
2022/10/15 06:15:16;;;;;;;4.95;2.70;;;12.70;91.80;;;;;;6307809;22;20000;-80
2022/10/15 06:17:42;;;;;;;4.07;2.42;;;12.60;91.80;;;;;;6280774;22;20003;-80
2022/10/15 06:20:08;;;;;;;4.55;2.75;;;12.80;91.80;;;;;;6305912;22;20074;-80
2022/10/15 06:22:34;;;;;;;4.88;2.75;;;12.80;91.80;;;;;;6275910;22;20011;-80
2022/10/15 06:24:59;;;;;;;4.43;2.70;;;12.80;91.80;;;;;;6277135;22;20033;-80
2022/10/15 06:27:26;;;;;;;4.85;2.60;;;12.80;91.80;;;;;;6277101;22;20382;-80
2022/10/15 06:29:52;;;;;;;4.68;2.72;;;12.80;91.80;;;;;;6285214;22;20052;-80
2022/10/15 06:32:18;;;;;;;3.70;2.30;;;12.90;91.80;;;;;;6305716;22;20093;-80
2022/10/15 06:34:43;;;;;;;4.97;2.70;;;12.80;91.80;;;;;;6306016;22;20002;-80
2022/10/15 06:37:09;;;;;;;4.80;2.20;;;12.90;91.90;;;;;;6255402;22;20358;-78
2022/10/15 06:39:35;;;;;;;6.45;3.33;;;12.90;91.90;;;;;;6305957;22;20435;-78
2022/10/15 06:42:01;;;;;;;4.18;2.30;;;12.90;91.90;;;;;;6277919;22;20010;-78
2022/10/15 06:44:26;;;;;;;4.35;2.22;;;12.90;91.90;;;;;;6281000;22;20015;-79
2022/10/15 06:46:52;;;;;;;4.68;2.42;;;12.90;91.90;;;;;;6305718;22;20003;-78
2022/10/15 06:49:18;;;;;;;4.90;2.25;;;13.00;92.00;;;;;;6276213;22;20374;-79
2022/10/15 06:51:43;;;;;;;4.65;2.42;;;13.00;91.90;;;;;;6280208;22;20332;-79
2022/10/15 06:54:09;;;;;;;4.40;2.33;;;13.00;92.00;;;;;;6306154;22;19992;-79
2022/10/15 06:56:35;;;;;;;3.38;2.08;;;13.00;92.00;;;;;;6304922;22;20000;-79
2022/10/15 06:59:01;;;;;;;3.40;1.98;;;13.00;92.00;;;;;;6305644;22;20841;-75
2022/10/15 07:01:27;;;;;;;4.22;2.30;;;13.00;92.00;;;;;;6305521;22;19999;-78
2022/10/15 07:03:53;;;;;;;3.40;2.10;;;13.10;92.00;;;;;;6253152;22;20000;-78
2022/10/15 07:06:19;;;;;;;3.55;2.20;;;13.10;92.00;;;;;;6305460;22;20056;-79
2022/10/15 07:08:44;;;;;;;3.58;2.15;;;13.10;92.00;;;;;;6306154;22;20526;-78
2022/10/15 07:11:10;;;;;;;5.10;2.53;;;13.10;92.00;;;;;;6278126;22;20007;-79
2022/10/15 07:13:37;;;;;;;3.10;1.88;;;13.20;92.10;;;;;;6304958;22;20436;-80
2022/10/15 07:16:05;;;;;;;3.33;1.95;;;13.20;92.10;;;;;;6278744;22;20034;-79
2022/10/15 07:18:31;;;;;;;2.88;1.60;;;13.10;92.10;;;;;;6305520;22;20010;-79
2022/10/15 07:20:57;;;;;;;3.72;2.08;;;13.20;92.10;;;;;;6276460;22;20103;-79
2022/10/15 07:23:23;;;;;;;3.20;1.90;;;13.20;92.10;;;;;;6305769;22;20289;-79
2022/10/15 07:25:48;;;;;;;3.97;2.10;;;13.30;92.10;;;;;;6251323;22;20059;-79
2022/10/15 07:28:14;;;;;;;3.15;1.98;;;13.30;92.10;;;;;;6305136;22;19999;-79
2022/10/15 07:30:40;;;;;;;4.43;2.35;;;13.40;92.10;;;;;;6306396;22;20411;-79
2022/10/15 07:33:06;;;;;;;3.33;2.00;;;13.30;92.10;;;;;;6300885;22;20007;-79
2022/10/15 07:35:32;;;;;;;3.50;2.10;;;13.40;92.10;;;;;;6299828;22;20030;-79
2022/10/15 07:38:00;;;;;;;4.30;2.35;;;13.40;92.00;;;;;;6250173;22;20056;-79
2022/10/15 07:40:26;;;;;;;5.00;2.53;;;13.40;92.00;;;;;;6275195;22;20019;-79
2022/10/15 07:42:54;;;;;;;5.20;2.78;;;13.40;92.00;;;;;;6305512;22;20439;-79
2022/10/15 07:45:20;;;;;;;5.40;3.17;;;13.40;92.00;;;;;;6265621;22;20003;-79
2022/10/15 07:47:46;;;;;;;5.93;3.30;;;13.40;92.00;;;;;;6272654;22;20030;-79
2022/10/15 07:50:12;;;;;;;6.55;3.80;;;13.50;92.00;;;;;;6302090;22;19999;-79
2022/10/15 07:52:37;;;;;;;5.35;3.30;;;13.50;92.00;;;;;;6255550;22;20031;-79
2022/10/15 07:55:03;;;;;;;4.95;3.28;;;13.50;92.00;;;;;;6305291;22;20447;-77
2022/10/15 07:57:29;;;;;;;5.50;3.00;;;13.60;92.00;;;;;;6302433;22;20006;-78
2022/10/15 07:59:55;;;;;;;5.35;3.15;;;13.60;92.00;;;;;;6302360;22;19999;-79
2022/10/15 08:02:21;;;;;;;5.07;2.90;;;13.60;92.00;;;;;;6302304;22;20023;-78
2022/10/15 08:04:47;;;;;;;4.93;2.72;;;13.60;92.00;;;;;;6305503;22;20444;-78
2022/10/15 08:07:13;;;;;;;4.18;2.50;;;13.70;92.00;;;;;;6259323;22;20007;-78
2022/10/15 08:09:38;;;;;;;4.65;2.50;;;13.80;92.00;;;;;;6305184;22;20022;-77
2022/10/15 08:12:05;;;;;;;4.82;2.60;;;13.90;92.00;;;;;;6305835;22;20416;-78
2022/10/15 08:14:32;;;;;;;4.18;2.40;;;13.80;91.90;;;;;;6277846;22;20003;-78
2022/10/15 08:16:59;;;;;;;4.28;2.33;;;13.90;91.90;;;;;;6277919;22;20335;-78
2022/10/15 08:19:25;;;;;;;3.00;1.90;;;13.90;91.90;;;;;;6304997;22;20038;-78
2022/10/15 08:21:51;;;;;;;4.20;2.38;;;14.00;91.90;;;;;;6305165;22;20450;-78
2022/10/15 08:24:17;;;;;;;3.60;2.10;;;14.00;91.90;;;;;;6304957;22;20458;-78
2022/10/15 08:26:48;;;;;;;3.88;2.13;;;14.10;92.10;;;;;;6305314;22;20034;-78
2022/10/15 08:29:13;;;;;;;;;;;14.10;91.90;;;;;;6304916;22;20007;-78
2022/10/15 08:31:39;;;;;;;3.35;2.05;;;14.30;91.80;;;;;;6304274;22;20040;-78
2022/10/15 08:34:05;;;;;;;4.35;2.42;;;14.20;91.80;;;;;;6276853;22;20380;-78
2022/10/15 08:36:31;;;;;;;5.97;3.53;;;14.30;91.80;;;;;;6248637;22;20000;-78
2022/10/15 08:38:57;;;;;;;5.28;3.28;;;14.30;91.70;;;;;;6250011;22;20039;-77
2022/10/15 08:41:37;;;;;;;5.10;2.90;;;14.30;91.60;;;;;;6249664;22;20014;-77
2022/10/15 08:44:04;;;;;;;5.30;3.03;;;14.40;91.70;;;;;;6274435;22;20332;-76
2022/10/15 08:46:37;;;;;;;4.78;2.60;;;14.50;91.60;;;;;;6304676;22;20007;-76
2022/10/15 08:49:13;;;;;;;5.38;3.03;;;14.50;91.60;;;;;;6251569;22;20008;-77
2022/10/15 08:51:53;;;;;;;5.82;3.53;;;14.60;91.60;;;;;;6304154;22;20003;-77
2022/10/15 08:54:19;;;;;;;4.53;2.70;;;14.60;91.50;;;;;;6305074;22;20003;-77
2022/10/15 08:56:49;;;;;;;4.63;2.67;;;14.60;91.50;;;;;;6251154;22;20431;-77
2022/10/15 08:59:38;;;;;;;4.20;2.75;;;14.60;91.50;;;;;;6270331;22;20016;-77
2022/10/15 09:02:29;;;;;;;4.72;2.88;;;14.60;91.60;;;;;;6270923;22;20072;-77
2022/10/15 09:05:20;;;;;;;4.22;2.17;;;14.60;91.60;;;;;;6271146;22;20015;-77
2022/10/15 09:07:55;;;;;;;2.97;1.92;;;14.50;91.60;;;;;;6249233;22;20344;-77
2022/10/15 09:10:38;;;;;;;3.72;2.20;;;14.60;91.70;;;;;;6271038;22;20428;-77
2022/10/15 09:13:22;;;;;;;4.25;2.30;;;14.70;91.70;;;;;;6274855;22;20022;-77
2022/10/15 09:15:56;;;;;;;3.55;2.25;;;14.70;91.70;;;;;;6271198;22;20031;-77
2022/10/15 09:18:26;;;;;;;4.22;2.38;;;14.80;91.60;;;;;;6246003;22;20026;-77
2022/10/15 09:20:53;;;;;;;3.40;2.15;;;14.80;91.60;;;;;;6246955;22;20523;-77
2022/10/15 09:23:23;;;;;;;3.75;2.30;;;14.90;91.50;;;;;;6271371;22;20004;-76
2022/10/15 09:25:58;;;;;;;2.60;1.85;;;14.90;91.50;;;;;;6246032;22;20019;-77
2022/10/15 09:28:34;;;;;;;2.05;1.52;;;14.90;91.50;;;;;;6271393;22;20014;-77
2022/10/15 09:31:01;;;;;;;2.63;1.70;;;15.00;91.50;;;;;;6298483;22;20011;-77
2022/10/15 09:33:37;;;;;;;3.55;2.10;;;15.10;91.50;;;;;;6304396;22;20082;-77
2022/10/15 09:36:17;;;;;;;3.55;1.92;;;15.10;91.50;;;;;;6273186;22;19999;-77
2022/10/15 09:39:02;;;;;;;3.42;1.80;;;15.10;91.40;;;;;;6302781;22;19999;-76
2022/10/15 09:42:04;;;;;;;3.75;1.88;;;15.20;91.40;;;;;;6301979;22;19999;-77
2022/10/15 09:44:38;;;;;;;3.30;1.80;;;15.30;91.30;;;;;;6300497;22;20082;-77
2022/10/15 09:47:26;;;;;;;3.88;2.00;;;15.30;91.30;;;;;;6304062;22;20078;-77
2022/10/15 09:49:52;;;;;;;4.15;2.38;;;15.40;91.30;;;;;;6277661;22;20381;-77
2022/10/15 09:52:42;;;;;;;2.72;1.80;;;15.50;91.30;;;;;;6305272;22;20803;-77
2022/10/15 09:55:39;;;;;;;2.88;2.00;;;15.60;91.30;;;;;;6305312;22;20049;-77
2022/10/15 09:58:12;;;;;;;2.55;1.40;;;15.50;91.20;;;;;;6306301;22;20015;-76
2022/10/15 10:00:53;;;;;;;3.08;1.77;;;15.60;91.20;;;;;;6278019;22;20025;-77
2022/10/15 10:03:20;;;;;;;;;;;15.60;91.20;;;;;;6277670;22;20007;-77
2022/10/15 10:05:47;;;;;;;2.17;1.42;;;15.50;91.10;;;;;;6304951;22;19905;-78
2022/10/15 10:08:21;;;;;;;2.42;1.45;;;15.50;91.20;;;;;;6278178;22;20010;-78
2022/10/15 10:10:55;;;;;;;2.00;1.30;;;15.60;91.30;;;;;;6305250;22;20015;-78
2022/10/15 10:13:26;;;;;;;2.30;1.38;;;15.60;91.30;;;;;;6278521;22;20072;-78
2022/10/15 10:15:54;;;;;;;1.95;1.40;;;15.50;91.30;;;;;;6275231;22;20000;-78
2022/10/15 10:18:23;;;;;;;1.90;1.30;;;15.50;91.40;;;;;;6278120;22;19996;-78
2022/10/15 10:21:00;;;;;;;1.42;1.10;;;15.50;91.40;;;;;;6305318;22;20003;-78
2022/10/15 10:23:33;;;;;;;1.75;1.50;;;15.50;91.40;;;;;;6250916;22;20006;-79
2022/10/15 10:26:02;;;;;;;1.05;0.90;;;15.50;91.50;;;;;;6276400;22;20011;-79
2022/10/15 10:28:33;;;;;;;2.08;1.20;;;15.50;91.50;;;;;;6306178;22;20071;-79
2022/10/15 10:31:09;;;;;;;2.00;1.48;;;15.50;91.50;;;;;;6272575;22;20030;-79
2022/10/15 10:33:46;;;;;;;1.83;1.23;;;15.40;91.60;;;;;;6306297;22;20281;-79
2022/10/15 10:36:32;;;;;;;2.10;1.33;;;15.40;91.60;;;;;;6306391;22;20026;-79
2022/10/15 10:39:24;;;;;;;1.95;1.13;;;15.40;91.60;;;;;;6305467;22;19999;-79
2022/10/15 10:41:54;;;;;;;1.52;1.00;;;15.40;91.70;;;;;;6257312;22;20015;-79
2022/10/15 10:44:34;;;;;;;1.90;1.17;;;15.40;91.70;;;;;;6276600;22;20018;-79
2022/10/15 10:47:10;;;;;;;1.67;1.10;;;15.40;91.80;;;;;;6252970;22;20098;-79
2022/10/15 10:49:39;;;;;;;2.58;1.10;;;15.40;91.80;;;;;;6305033;22;20018;-79
2022/10/15 10:52:17;;;;;;;1.83;1.10;;;15.40;91.90;;;;;;6277762;22;20043;-79
2022/10/15 10:54:43;;;;;;;1.50;1.00;;;15.40;91.90;;;;;;6277894;22;20309;-79
2022/10/15 10:57:12;;;;;;;1.40;0.90;;;15.40;91.90;;;;;;6305690;22;20007;-79
2022/10/15 10:59:49;;;;;;;1.45;0.90;;;15.40;91.90;;;;;;6278174;22;20074;-79
2022/10/15 11:02:15;;;;;;;1.73;1.20;;;15.40;91.90;;;;;;6306181;22;20030;-79
2022/10/15 11:04:40;;;;;;;2.50;1.58;;;15.40;91.90;;;;;;6278454;22;20007;-80
2022/10/15 11:07:27;;;;;;;2.53;1.55;;;15.30;91.90;;;;;;6305238;22;20007;-79
2022/10/15 11:10:12;;;;;;;2.60;1.50;;;15.30;91.90;;;;;;6305593;22;20035;-79
2022/10/15 11:13:06;;;;;;;2.28;1.40;;;15.40;92.00;;;;;;6279304;22;20094;-79
2022/10/15 11:15:47;;;;;;;2.38;1.13;;;15.30;92.00;;;;;;6273207;22;20010;-79
2022/10/15 11:18:33;;;;;;;1.98;1.40;;;15.40;92.00;;;;;;6303949;22;20078;-79
2022/10/15 11:21:15;;;;;;;1.48;1.10;;;15.40;92.00;;;;;;6305457;22;20106;-79
2022/10/15 11:24:16;;;;;;;2.17;1.20;;;15.50;92.00;;;;;;6305109;22;19999;-79
2022/10/15 11:27:13;;;;;;;3.28;1.40;;;15.40;92.00;;;;;;6251413;22;19999;-79
2022/10/15 11:29:56;;;;;;;2.17;1.17;;;15.40;92.00;;;;;;6280906;22;20015;-78
2022/10/15 11:32:46;;;;;;;1.25;1.00;;;15.40;91.90;;;;;;6305246;22;20018;-78
2022/10/15 11:35:47;;;;;;;1.42;1.00;;;15.40;92.00;;;;;;6305406;22;20011;-80
2022/10/15 11:38:38;;;;;;;1.67;1.20;;;15.50;92.00;;;;;;6276938;22;20086;-79
2022/10/15 11:41:32;;;;;;;0.88;0.75;;;15.50;92.00;;;;;;6284053;22;20003;-79
2022/10/15 11:44:28;;;;;;;1.20;1.00;;;15.50;92.00;;;;;;6257736;22;20011;-79
2022/10/15 11:47:16;;;;;;;1.38;1.08;;;15.60;91.90;;;;;;6303378;22;20003;-79
2022/10/15 11:50:06;;;;;;;1.60;0.98;;;15.60;91.90;;;;;;6277077;22;20091;-79
2022/10/15 11:53:00;;;;;;;1.52;1.10;;;15.50;91.90;;;;;;6302977;22;20012;-80
2022/10/15 11:55:41;;;;;;;1.40;1.15;;;15.60;91.90;;;;;;6280526;22;20331;-80
2022/10/15 11:58:29;;;;;;;1.33;0.98;;;15.60;91.90;;;;;;6305491;22;19999;-81
2022/10/15 12:01:00;;;;;;;2.25;1.23;;;15.70;91.90;;;;;;6305838;22;21165;-78
2022/10/15 12:03:29;;;;;;;1.77;1.17;;;15.60;91.90;;;;;;6277736;22;20022;-79
2022/10/15 12:06:02;;;;;;;1.73;1.02;;;15.60;91.90;;;;;;6300077;22;20007;-79
2022/10/15 12:08:33;;;;;;;2.22;1.23;;;15.70;91.90;;;;;;6305274;22;20007;-81
2022/10/15 12:11:20;;;;;;;1.55;1.00;;;15.60;91.90;;;;;;6305516;22;19995;-80
2022/10/15 12:13:57;;;;;;;1.45;0.98;;;15.70;92.00;;;;;;6274361;22;20133;-80
2022/10/15 12:16:46;;;;;;;1.70;1.20;;;15.70;92.00;;;;;;6248684;22;20011;-80
2022/10/15 12:19:21;;;;;;;1.35;1.10;;;15.70;92.00;;;;;;6304939;22;19999;-81
2022/10/15 12:22:09;;;;;;;1.35;1.00;;;15.70;92.00;;;;;;6274278;22;20058;-81
2022/10/15 12:24:57;;;;;;;1.00;0.80;;;15.70;92.20;;;;;;6278736;22;19999;-80
2022/10/15 12:27:29;;;;;;;1.45;1.08;;;15.80;92.00;;;;;;6276871;22;20031;-80
2022/10/15 12:30:15;;;;;;;;;;;15.80;91.90;;;;;;6274942;22;20000;-80
2022/10/15 12:32:46;;;;;;;0.98;0.80;;;15.80;91.90;;;;;;6281735;22;19910;-80
2022/10/15 12:35:22;;;;;;;1.38;1.00;;;15.90;91.90;;;;;;6277570;22;20052;-80
2022/10/15 12:37:49;;;;;;;1.38;0.95;;;15.90;91.90;;;;;;6304485;22;20175;-80
2022/10/15 12:40:29;;;;;;;1.05;0.90;;;16.00;91.90;;;;;;6274895;22;20000;-80
2022/10/15 12:43:02;;;;;;;0.80;0.80;;;16.10;91.90;;;;;;6271058;22;20004;-80
2022/10/15 12:45:34;;;;;;;2.10;1.15;;;16.10;91.90;;;;;;6272118;22;20464;-81
2022/10/15 12:48:27;;;;;;;1.67;0.90;;;16.10;91.80;;;;;;6304895;22;20010;-81
2022/10/15 12:51:28;;;;;;;1.00;0.80;;;16.10;91.90;;;;;;6275414;22;20057;-82
2022/10/15 12:53:56;;;;;;;0.68;0.68;;;16.10;91.80;;;;;;6280142;22;20086;-81
2022/10/15 12:56:39;;;;;;;0.73;0.70;;;16.20;91.80;;;;;;6252159;22;20805;-81
2022/10/15 12:59:43;;;;;;;0.88;0.80;;;16.20;91.80;;;;;;6305039;22;20000;-81
2022/10/15 13:02:32;;;;;;;0.70;0.65;;;16.30;91.90;;;;;;6307614;22;20463;-81
2022/10/15 13:04:58;;;;;;;0.98;0.77;;;16.30;91.80;;;;;;6302643;22;20029;-82
2022/10/15 13:07:24;;;;;;;0.68;0.65;;;16.30;91.80;;;;;;6276696;22;20086;-80
2022/10/15 13:09:49;;;;;;;1.27;0.73;;;16.30;91.80;;;;;;6304463;22;20004;-81
2022/10/15 13:12:22;;;;;;;0.65;0.65;;;16.40;91.90;;;;;;6304639;22;20007;-82